createdAt,value
2018-07-04T00:02:11.251Z,10.50
2018-07-04T00:04:52.459Z,10.50
2018-07-04T00:07:32.947Z,10.40
2018-07-04T00:10:13.715Z,10.40
2018-07-04T00:12:54.084Z,10.40
2018-07-04T00:15:34.384Z,10.50
2018-07-04T00:18:14.800Z,10.50
2018-07-04T00:20:55.222Z,10.50
2018-07-04T00:23:35.509Z,10.70
2018-07-04T00:26:15.910Z,10.60
2018-07-04T00:28:56.439Z,10.60
2018-07-04T00:31:36.742Z,10.50
2018-07-04T00:34:17.251Z,10.50
2018-07-04T00:36:58.096Z,10.50
2018-07-04T00:39:38.404Z,10.40
2018-07-04T00:42:18.855Z,10.50
2018-07-04T00:44:59.153Z,10.40
2018-07-04T00:47:39.549Z,10.50
2018-07-04T00:50:19.848Z,10.50
2018-07-04T00:53:00.686Z,10.50
2018-07-04T00:55:41.015Z,10.50
2018-07-04T00:58:21.456Z,10.30
2018-07-04T01:01:01.858Z,10.30
2018-07-04T01:03:42.115Z,10.20
2018-07-04T01:06:22.659Z,10.20
2018-07-04T01:09:03.180Z,10.10
2018-07-04T01:11:43.517Z,10.20
2018-07-04T01:14:23.843Z,10.10
2018-07-04T01:17:04.275Z,10.10
2018-07-04T01:19:44.762Z,10.20
2018-07-04T01:22:25.143Z,10.20
2018-07-04T01:25:05.673Z,10.20
2018-07-04T01:27:46.295Z,10.20
2018-07-04T01:30:26.724Z,10.20
2018-07-04T01:33:07.440Z,10.20
2018-07-04T01:35:47.900Z,10.20
2018-07-04T01:38:28.363Z,10.20
2018-07-04T01:41:08.624Z,10.20
2018-07-04T01:43:48.891Z,10.20
2018-07-04T01:46:29.207Z,10.10
2018-07-04T01:49:09.592Z,10.20
2018-07-04T01:51:50.030Z,10.10
2018-07-04T01:54:31.168Z,10.10
2018-07-04T01:57:11.589Z,10.10
2018-07-04T01:59:51.959Z,10.20
2018-07-04T02:02:32.591Z,10.10
2018-07-04T02:05:12.918Z,10.10
2018-07-04T02:07:53.260Z,10.00
2018-07-04T02:10:33.767Z,9.90
2018-07-04T02:13:14.670Z,9.90
2018-07-04T02:15:55.149Z,9.80
2018-07-04T02:18:35.611Z,9.80
2018-07-04T02:21:15.837Z,9.90
2018-07-04T02:23:56.152Z,9.90
2018-07-04T02:26:36.604Z,10.10
2018-07-04T02:29:17.000Z,10.20
2018-07-04T02:31:57.371Z,10.30
2018-07-04T02:34:37.776Z,10.30
2018-07-04T02:37:18.327Z,10.40
2018-07-04T02:39:58.918Z,10.40
2018-07-04T02:42:39.499Z,10.40
2018-07-04T02:45:19.831Z,10.40
2018-07-04T02:48:00.292Z,10.50
2018-07-04T02:50:40.642Z,10.80
2018-07-04T02:53:20.971Z,10.80
2018-07-04T02:56:01.421Z,10.70
2018-07-04T02:58:41.824Z,10.50
2018-07-04T03:01:22.239Z,10.40
2018-07-04T03:04:02.745Z,10.30
2018-07-04T03:06:43.151Z,10.20
2018-07-04T03:09:23.575Z,10.20
2018-07-04T03:12:03.954Z,10.30
2018-07-04T03:14:44.282Z,10.20
2018-07-04T03:17:24.688Z,10.20
2018-07-04T03:20:05.077Z,10.20
2018-07-04T03:22:45.623Z,10.20
2018-07-04T03:25:26.008Z,10.10
2018-07-04T03:28:06.465Z,10.20
2018-07-04T03:30:46.788Z,10.10
2018-07-04T03:33:27.111Z,10.00
2018-07-04T03:36:07.572Z,10.00
2018-07-04T03:38:47.944Z,10.00
2018-07-04T03:41:28.324Z,9.90
2018-07-04T03:44:08.861Z,9.90
2018-07-04T03:46:49.427Z,10.00
2018-07-04T03:49:29.790Z,9.90
2018-07-04T03:52:10.123Z,9.90
2018-07-04T03:57:24.799Z,10.00
2018-07-04T04:02:39.770Z,10.20
2018-07-04T04:05:20.248Z,10.50
2018-07-04T04:08:00.620Z,10.70
2018-07-04T04:10:41.095Z,10.90
2018-07-04T04:13:21.550Z,11.10
2018-07-04T04:16:02.143Z,11.40
2018-07-04T04:18:42.475Z,11.70
2018-07-04T04:21:23.051Z,11.80
2018-07-04T04:24:03.324Z,11.90
2018-07-04T04:26:43.722Z,12.20
2018-07-04T04:29:24.184Z,12.50
2018-07-04T04:32:04.635Z,12.60
2018-07-04T04:34:44.913Z,12.70
2018-07-04T04:37:25.259Z,13.00
2018-07-04T04:40:05.632Z,13.20
2018-07-04T04:42:46.097Z,13.30
2018-07-04T04:45:26.452Z,13.60
2018-07-04T04:48:06.975Z,13.70
2018-07-04T04:50:47.330Z,13.90
2018-07-04T04:53:27.826Z,13.80
2018-07-04T04:56:08.340Z,14.10
2018-07-04T04:58:48.840Z,14.30
2018-07-04T05:01:29.131Z,14.70
2018-07-04T05:04:09.951Z,15.00
2018-07-04T05:06:50.232Z,15.10
2018-07-04T05:09:30.732Z,15.20
2018-07-04T05:12:11.032Z,15.10
2018-07-04T05:14:51.349Z,15.30
2018-07-04T05:17:31.745Z,15.40
2018-07-04T05:20:12.285Z,15.40
2018-07-04T05:22:52.664Z,15.30
2018-07-04T05:25:32.958Z,15.50
2018-07-04T05:28:13.599Z,15.90
2018-07-04T05:30:53.983Z,16.30
2018-07-04T05:33:34.343Z,17.00
2018-07-04T05:36:14.731Z,16.80
2018-07-04T05:38:55.107Z,17.20
2018-07-04T05:41:36.256Z,17.70
2018-07-04T05:44:16.744Z,17.90
2018-07-04T05:46:57.192Z,18.00
2018-07-04T05:49:37.538Z,18.50
2018-07-04T05:52:18.059Z,19.10
2018-07-04T05:54:58.350Z,19.20
2018-07-04T05:57:38.811Z,19.70
2018-07-04T06:00:19.267Z,20.10
2018-07-04T06:02:59.670Z,20.70
2018-07-04T06:05:40.123Z,20.70
2018-07-04T06:08:20.400Z,21.50
2018-07-04T06:11:00.932Z,21.00
2018-07-04T06:13:41.373Z,20.70
2018-07-04T06:16:22.087Z,20.70
2018-07-04T06:19:02.416Z,20.60
2018-07-04T06:21:42.763Z,20.80
2018-07-04T06:24:23.318Z,20.70
2018-07-04T06:27:03.987Z,21.20
2018-07-04T06:32:19.147Z,21.90
2018-07-04T06:34:59.592Z,21.40
2018-07-04T06:37:41.252Z,21.10
2018-07-04T06:40:10.236Z,20.90
2018-07-04T06:42:38.667Z,21.00
2018-07-04T06:45:06.655Z,21.50
2018-07-04T06:47:34.631Z,22.00
2018-07-04T06:50:02.596Z,22.70
2018-07-04T06:52:30.548Z,22.90
2018-07-04T06:54:58.637Z,22.60
2018-07-04T06:57:26.596Z,22.20
2018-07-04T06:59:54.587Z,21.80
2018-07-04T07:02:22.562Z,21.00
2018-07-04T07:05:03.565Z,20.30
2018-07-04T07:07:43.968Z,20.60
2018-07-04T07:10:24.856Z,22.40
2018-07-04T07:13:05.273Z,22.30
2018-07-04T07:15:45.753Z,22.40
2018-07-04T07:18:26.136Z,23.00
2018-07-04T07:21:06.421Z,22.20
2018-07-04T07:23:46.935Z,23.00
2018-07-04T07:26:27.401Z,22.20
2018-07-04T07:29:07.800Z,22.00
2018-07-04T07:31:48.238Z,23.00
2018-07-04T07:34:31.493Z,24.00
2018-07-04T07:37:11.790Z,24.00
2018-07-04T07:39:52.487Z,23.50
2018-07-04T07:42:32.902Z,22.70
2018-07-04T07:45:13.219Z,22.80
2018-07-04T07:47:53.607Z,22.50
2018-07-04T07:50:34.105Z,23.00
2018-07-04T07:53:14.585Z,24.10
2018-07-04T07:55:54.917Z,25.40
2018-07-04T07:58:35.240Z,25.00
2018-07-04T08:01:15.555Z,26.10
2018-07-04T08:03:55.953Z,24.80
2018-07-04T08:06:36.827Z,23.50
2018-07-04T08:09:17.305Z,23.20
2018-07-04T08:11:57.670Z,23.80
2018-07-04T08:14:38.321Z,24.00
2018-07-04T08:17:18.919Z,23.90
2018-07-04T08:20:00.496Z,23.70
2018-07-04T08:22:41.050Z,23.30
2018-07-04T08:25:21.340Z,24.10
2018-07-04T08:28:01.897Z,23.70
2018-07-04T08:30:42.289Z,23.30
2018-07-04T08:33:22.847Z,23.90
2018-07-04T08:36:03.347Z,23.60
2018-07-04T08:38:43.815Z,23.70
2018-07-04T08:41:24.032Z,24.30
2018-07-04T08:44:04.716Z,25.20
2018-07-04T08:46:45.164Z,24.50
2018-07-04T08:49:25.608Z,24.10
2018-07-04T08:52:06.125Z,23.70
2018-07-04T08:54:46.608Z,24.00
2018-07-04T08:57:26.971Z,24.70
2018-07-04T09:00:07.336Z,24.40
2018-07-04T09:02:47.896Z,24.00
2018-07-04T09:05:28.288Z,23.00
2018-07-04T09:08:11.743Z,23.80
2018-07-04T09:13:26.122Z,25.10
2018-07-04T09:16:06.376Z,25.30
2018-07-04T09:18:46.801Z,26.40
2018-07-04T09:21:27.184Z,26.00
2018-07-04T09:24:09.178Z,26.40
2018-07-04T09:26:49.540Z,25.70
2018-07-04T09:29:29.946Z,25.40
2018-07-04T09:32:10.346Z,25.40
2018-07-04T09:34:50.806Z,27.30
2018-07-04T09:37:31.101Z,26.50
2018-07-04T09:40:11.600Z,27.50
2018-07-04T09:42:51.996Z,25.80
2018-07-04T09:45:32.424Z,25.70
2018-07-04T09:48:12.955Z,27.00
2018-07-04T09:50:53.913Z,28.40
2018-07-04T09:53:37.534Z,27.00
2018-07-04T09:56:18.614Z,25.90
2018-07-04T09:58:59.163Z,24.80
2018-07-04T10:01:39.589Z,24.30
2018-07-04T10:04:19.975Z,24.40
2018-07-04T10:07:01.118Z,25.60
2018-07-04T10:09:41.636Z,26.60
2018-07-04T10:12:22.237Z,27.40
2018-07-04T10:15:02.756Z,26.70
2018-07-04T10:17:43.082Z,26.90
2018-07-04T10:20:23.694Z,27.90
2018-07-04T10:23:04.285Z,27.00
2018-07-04T10:25:44.672Z,25.10
2018-07-04T10:30:59.480Z,24.80
2018-07-04T10:33:39.930Z,24.80
2018-07-04T10:36:20.368Z,25.60
2018-07-04T10:39:00.823Z,26.20
2018-07-04T10:41:41.274Z,26.40
2018-07-04T10:44:21.688Z,25.80
2018-07-04T10:47:02.106Z,26.10
2018-07-04T10:49:42.476Z,25.90
2018-07-04T10:52:22.967Z,25.40
2018-07-04T10:55:03.300Z,25.90
2018-07-04T10:57:43.797Z,26.40
2018-07-04T11:00:24.321Z,26.60
2018-07-04T11:03:04.779Z,26.40
2018-07-04T11:05:45.128Z,27.60
2018-07-04T11:08:25.827Z,26.20
2018-07-04T11:11:06.453Z,26.70
2018-07-04T11:13:46.894Z,24.90
2018-07-04T11:16:27.441Z,25.90
2018-07-04T11:19:07.821Z,24.90
2018-07-04T11:21:48.092Z,24.80
2018-07-04T11:24:28.662Z,23.80
2018-07-04T11:27:09.064Z,23.10
2018-07-04T11:29:49.460Z,24.60
2018-07-04T11:32:29.971Z,25.70
2018-07-04T11:35:10.328Z,26.40
2018-07-04T11:37:50.643Z,26.40
2018-07-04T11:40:31.024Z,26.40
2018-07-04T11:43:11.348Z,26.60
2018-07-04T11:45:51.747Z,26.80
2018-07-04T11:48:19.747Z,26.60
2018-07-04T11:50:47.728Z,27.10
2018-07-04T11:53:15.727Z,26.50
2018-07-04T11:55:43.795Z,27.40
2018-07-04T11:58:12.032Z,28.50
2018-07-04T12:00:39.999Z,28.20
2018-07-04T12:03:13.884Z,29.00
2018-07-04T12:05:54.413Z,27.00
2018-07-04T12:08:22.675Z,27.40
2018-07-04T12:10:51.120Z,27.40
2018-07-04T12:13:20.294Z,27.00
2018-07-04T12:15:49.383Z,26.80
2018-07-04T12:18:17.423Z,26.10
2018-07-04T12:20:45.747Z,26.40
2018-07-04T12:23:14.716Z,25.50
2018-07-04T12:25:43.717Z,26.40
2018-07-04T12:28:11.710Z,26.40
2018-07-04T12:30:39.830Z,26.50
2018-07-04T12:33:07.815Z,26.80
2018-07-04T12:38:04.007Z,26.20
2018-07-04T12:40:32.015Z,26.70
2018-07-04T12:42:59.917Z,26.80
2018-07-04T12:45:27.929Z,27.50
2018-07-04T12:47:55.939Z,26.00
2018-07-04T12:50:28.091Z,25.80
2018-07-04T12:52:56.174Z,25.90
2018-07-04T12:58:17.297Z,26.10
2018-07-04T13:00:57.851Z,25.70
2018-07-04T13:03:38.671Z,25.50
2018-07-04T13:06:19.056Z,26.60
2018-07-04T13:08:59.488Z,26.60
2018-07-04T13:11:40.001Z,28.10
2018-07-04T13:14:20.352Z,27.80
2018-07-04T13:17:00.752Z,26.20
2018-07-04T13:19:41.943Z,26.50
2018-07-04T13:22:22.429Z,27.00
2018-07-04T13:25:02.748Z,26.30
2018-07-04T13:30:17.505Z,27.10
2018-07-04T13:32:58.133Z,24.90
2018-07-04T13:35:38.648Z,25.00
2018-07-04T13:38:19.109Z,25.30
2018-07-04T13:40:59.320Z,26.00
2018-07-04T13:43:39.587Z,26.80
2018-07-04T13:46:19.850Z,27.40
2018-07-04T13:49:00.199Z,27.00
2018-07-04T13:51:40.740Z,25.60
2018-07-04T13:54:21.353Z,26.10
2018-07-04T13:57:01.642Z,26.00
2018-07-04T13:59:42.052Z,25.60
2018-07-04T14:02:22.535Z,25.60
2018-07-04T14:05:03.549Z,25.90
2018-07-04T14:10:18.489Z,25.70
2018-07-04T14:12:59.060Z,25.70
2018-07-04T14:15:39.419Z,25.00
2018-07-04T14:18:19.869Z,26.20
2018-07-04T14:23:34.680Z,26.40
2018-07-04T14:26:15.888Z,26.60
2018-07-04T14:28:56.371Z,25.90
2018-07-04T14:31:36.874Z,25.60
2018-07-04T14:34:17.257Z,24.90
2018-07-04T14:36:57.599Z,25.30
2018-07-04T14:39:37.898Z,25.30
2018-07-04T14:44:52.574Z,25.30
2018-07-04T14:47:33.037Z,26.00
2018-07-04T14:55:22.159Z,25.90
2018-07-04T14:58:02.713Z,26.40
2018-07-04T15:00:43.175Z,26.60
2018-07-04T15:03:23.859Z,26.60
2018-07-04T15:06:04.349Z,25.60
2018-07-04T15:08:44.720Z,24.60
2018-07-04T15:11:25.564Z,25.40
2018-07-04T15:14:05.941Z,24.50
2018-07-04T15:16:46.288Z,24.30
2018-07-04T15:19:26.683Z,24.50
2018-07-04T15:22:07.229Z,24.60
2018-07-04T15:24:47.800Z,24.70
2018-07-04T15:27:28.264Z,25.80
2018-07-04T15:30:08.630Z,25.40
2018-07-04T15:32:49.157Z,25.20
2018-07-04T15:35:29.811Z,24.30
2018-07-04T15:38:11.148Z,24.30
2018-07-04T15:40:51.554Z,23.70
2018-07-04T15:43:31.920Z,23.60
2018-07-04T15:46:12.348Z,23.40
2018-07-04T15:48:52.840Z,23.30
2018-07-04T15:56:42.271Z,23.10
2018-07-04T15:59:23.582Z,23.00
2018-07-04T16:02:04.236Z,22.50
2018-07-04T16:04:44.899Z,22.30
2018-07-04T16:07:25.354Z,22.30
2018-07-04T16:10:05.789Z,22.50
2018-07-04T16:12:46.463Z,22.10
2018-07-04T16:15:27.125Z,21.90
2018-07-04T16:18:07.571Z,21.50
2018-07-04T16:20:48.052Z,20.90
2018-07-04T16:23:29.409Z,20.50
2018-07-04T16:26:10.033Z,20.90
2018-07-04T16:28:50.384Z,21.20
2018-07-04T16:31:30.898Z,21.20
2018-07-04T16:34:11.456Z,20.80
2018-07-04T16:36:51.839Z,21.00
2018-07-04T16:42:06.528Z,20.60
2018-07-04T16:44:46.946Z,20.70
2018-07-04T16:47:27.382Z,20.80
2018-07-04T16:50:07.792Z,20.50
2018-07-04T16:52:48.110Z,20.50
2018-07-04T16:55:28.617Z,20.10
2018-07-04T16:58:08.864Z,20.10
2018-07-04T17:00:49.191Z,20.00
2018-07-04T17:03:29.577Z,20.20
2018-07-04T17:06:10.989Z,20.20
2018-07-04T17:08:51.418Z,20.20
2018-07-04T17:11:31.766Z,19.90
2018-07-04T17:14:12.031Z,19.60
2018-07-04T17:16:52.395Z,19.50
2018-07-04T17:19:32.859Z,19.50
2018-07-04T17:22:13.319Z,19.40
2018-07-04T17:24:53.783Z,18.90
2018-07-04T17:27:34.108Z,19.00
2018-07-04T17:30:14.515Z,18.80
2018-07-04T17:32:54.840Z,18.70
2018-07-04T17:35:35.537Z,18.50
2018-07-04T17:38:16.093Z,18.60
2018-07-04T17:40:56.460Z,18.60
2018-07-04T17:43:36.825Z,18.40
2018-07-04T17:46:17.332Z,18.40
2018-07-04T17:48:59.371Z,18.20
2018-07-04T17:51:39.775Z,18.20
2018-07-04T17:54:20.166Z,18.20
2018-07-04T17:57:00.676Z,18.20
2018-07-04T17:59:41.099Z,18.10
2018-07-04T18:02:21.567Z,18.00
2018-07-04T18:05:02.915Z,17.90
2018-07-04T18:07:43.380Z,17.90
2018-07-04T18:10:23.979Z,17.90
2018-07-04T18:13:04.345Z,17.90
2018-07-04T18:15:44.804Z,17.90
2018-07-04T18:18:25.171Z,17.70
2018-07-04T18:21:11.033Z,17.70
2018-07-04T18:23:51.456Z,17.80
2018-07-04T18:26:32.259Z,17.80
2018-07-04T18:29:12.774Z,17.80
2018-07-04T18:31:53.189Z,17.90
2018-07-04T18:34:33.469Z,18.00
2018-07-04T18:37:13.945Z,17.80
2018-07-04T18:39:54.386Z,17.80
2018-07-04T18:42:34.947Z,17.80
2018-07-04T18:45:15.312Z,17.80
2018-07-04T18:47:56.180Z,17.60
2018-07-04T18:50:36.911Z,17.50
2018-07-04T18:53:17.367Z,17.40
2018-07-04T18:55:57.739Z,17.40
2018-07-04T18:58:38.043Z,17.10
2018-07-04T19:01:18.322Z,17.10
2018-07-04T19:03:58.697Z,17.00
2018-07-04T19:06:39.166Z,16.90
2018-07-04T19:09:19.632Z,16.90
2018-07-04T19:12:00.181Z,16.90
2018-07-04T19:14:40.642Z,16.90
2018-07-04T19:17:21.048Z,16.70
2018-07-04T19:20:01.453Z,16.70
2018-07-04T19:22:41.834Z,16.60
2018-07-04T19:25:22.530Z,16.60
2018-07-04T19:28:03.266Z,16.50
2018-07-04T19:30:43.631Z,16.40
2018-07-04T19:33:24.436Z,16.50
2018-07-04T19:36:04.754Z,16.40
2018-07-04T19:38:45.764Z,16.30
2018-07-04T19:44:00.762Z,16.20
2018-07-04T19:46:41.563Z,16.20
2018-07-04T19:49:22.021Z,16.30
2018-07-04T19:52:02.397Z,16.40
2018-07-04T19:54:43.466Z,16.40
2018-07-04T19:57:24.233Z,16.40
2018-07-04T20:00:04.742Z,16.50
2018-07-04T20:02:45.184Z,16.50
2018-07-04T20:05:25.564Z,16.50
2018-07-04T20:08:05.919Z,16.50
2018-07-04T20:10:46.361Z,16.50
2018-07-04T20:13:26.817Z,16.40
2018-07-04T20:16:07.384Z,16.40
2018-07-04T20:18:47.737Z,16.50
2018-07-04T20:21:28.157Z,16.40
2018-07-04T20:24:08.455Z,16.40
2018-07-04T20:26:48.956Z,16.30
2018-07-04T20:29:29.981Z,16.30
2018-07-04T20:32:10.453Z,16.20
2018-07-04T20:37:26.571Z,16.10
2018-07-04T20:40:06.952Z,16.10
2018-07-04T20:42:47.330Z,16.10
2018-07-04T20:45:27.730Z,16.10
2018-07-04T20:48:08.051Z,16.10
2018-07-04T20:50:48.410Z,16.10
2018-07-04T20:53:28.835Z,16.10
2018-07-04T20:56:09.240Z,16.30
2018-07-04T20:58:49.714Z,16.20
2018-07-04T21:01:30.103Z,16.10
2018-07-04T21:04:10.467Z,16.00
2018-07-04T21:06:50.947Z,15.80
2018-07-04T21:09:31.159Z,15.70
2018-07-04T21:12:11.652Z,15.60
2018-07-04T21:14:51.927Z,15.60
2018-07-04T21:17:32.513Z,15.70
2018-07-04T21:20:12.841Z,15.80
2018-07-04T21:22:53.341Z,15.80
2018-07-04T21:25:33.665Z,15.80
2018-07-04T21:28:14.222Z,15.70
2018-07-04T21:30:54.932Z,15.60
2018-07-04T21:33:35.220Z,15.50
2018-07-04T21:36:15.987Z,15.40
2018-07-04T21:38:56.280Z,15.40
2018-07-04T21:41:36.568Z,15.30
2018-07-04T21:44:16.960Z,15.00
2018-07-04T21:46:57.371Z,14.90
2018-07-04T21:49:37.920Z,14.70
2018-07-04T21:52:18.211Z,14.60
2018-07-04T21:54:58.716Z,14.50
2018-07-04T21:57:39.146Z,14.50
2018-07-04T22:00:24.180Z,14.40
2018-07-04T22:03:04.580Z,14.40
2018-07-04T22:05:45.023Z,14.50
2018-07-04T22:08:25.543Z,14.40
2018-07-04T22:11:05.893Z,14.50
2018-07-04T22:16:21.309Z,14.70
2018-07-04T22:19:01.802Z,14.70
2018-07-04T22:21:42.045Z,14.70
2018-07-04T22:24:22.564Z,14.70
2018-07-04T22:27:02.985Z,14.70
2018-07-04T22:29:43.260Z,14.70
2018-07-04T22:32:23.788Z,14.60
2018-07-04T22:35:04.403Z,14.60
2018-07-04T22:37:44.668Z,14.50
2018-07-04T22:40:25.079Z,14.40
2018-07-04T22:43:05.590Z,14.40
2018-07-04T22:45:45.996Z,14.40
2018-07-04T22:48:27.056Z,14.60
2018-07-04T22:51:07.434Z,14.60
2018-07-04T22:53:47.988Z,14.60
2018-07-04T22:56:28.356Z,14.60
2018-07-04T22:59:08.701Z,14.60
2018-07-04T23:01:49.239Z,14.50
2018-07-04T23:04:29.605Z,14.50
2018-07-04T23:07:09.988Z,14.50
2018-07-04T23:09:50.540Z,14.60
2018-07-04T23:12:30.915Z,14.60
2018-07-04T23:15:11.230Z,14.70
2018-07-04T23:17:51.507Z,14.80
2018-07-04T23:20:31.925Z,14.90
2018-07-04T23:23:12.312Z,14.90
2018-07-04T23:25:52.610Z,14.90
2018-07-04T23:28:33.081Z,14.80
2018-07-04T23:31:13.484Z,14.70
2018-07-04T23:33:53.935Z,14.70
2018-07-04T23:36:34.267Z,14.70
2018-07-04T23:39:14.750Z,14.70
2018-07-04T23:41:55.265Z,14.80
2018-07-04T23:44:35.715Z,14.90
2018-07-04T23:47:16.016Z,14.90
2018-07-04T23:49:56.420Z,14.90
2018-07-04T23:52:36.682Z,14.80
2018-07-04T23:55:16.972Z,14.90
2018-07-04T23:57:58.034Z,14.80
